createdAt,value
2018-09-19T00:01:42.440Z,71.83
2018-09-19T00:04:11.765Z,71.39
2018-09-19T00:06:41.526Z,71.11
2018-09-19T00:09:12.196Z,71.73
2018-09-19T00:11:42.540Z,71.33
2018-09-19T00:14:12.312Z,70.45
2018-09-19T00:16:42.198Z,71.42
2018-09-19T00:19:11.552Z,71.17
2018-09-19T00:21:40.869Z,71.00
2018-09-19T00:24:10.236Z,71.09
2018-09-19T00:26:39.855Z,71.86
2018-09-19T00:29:09.761Z,71.56
2018-09-19T00:31:39.989Z,71.64
2018-09-19T00:34:09.325Z,71.65
2018-09-19T00:36:38.691Z,72.02
2018-09-19T00:39:11.014Z,71.64
2018-09-19T00:41:41.048Z,71.37
2018-09-19T00:44:10.384Z,71.59
2018-09-19T00:46:39.729Z,72.41
2018-09-19T00:49:09.036Z,71.70
2018-09-19T00:51:38.669Z,72.26
2018-09-19T00:54:08.844Z,71.56
2018-09-19T00:56:38.202Z,72.29
2018-09-19T00:59:08.090Z,71.61
2018-09-19T01:01:38.555Z,72.64
2018-09-19T01:04:07.946Z,72.30
2018-09-19T01:06:37.287Z,72.56
2018-09-19T01:09:10.048Z,73.09
2018-09-19T01:11:39.658Z,72.81
2018-09-19T01:14:09.034Z,73.58
2018-09-19T01:16:38.659Z,73.61
2018-09-19T01:19:07.978Z,73.06
2018-09-19T01:21:37.272Z,73.92
2018-09-19T01:24:06.870Z,74.03
2018-09-19T01:26:36.635Z,73.43
2018-09-19T01:29:06.024Z,73.32
2018-09-19T01:31:35.332Z,72.66
2018-09-19T01:34:05.786Z,73.87
2018-09-19T01:36:35.098Z,73.35
2018-09-19T01:39:05.031Z,73.94
2018-09-19T01:41:34.740Z,73.76
2018-09-19T01:44:04.068Z,74.38
2018-09-19T01:46:33.366Z,75.33
2018-09-19T01:49:02.737Z,74.77
2018-09-19T01:51:32.037Z,75.52
2018-09-19T01:54:01.380Z,75.33
2018-09-19T01:56:31.141Z,75.93
2018-09-19T01:59:01.073Z,75.49
2018-09-19T02:01:30.381Z,75.93
2018-09-19T02:04:00.726Z,74.82
2018-09-19T02:06:31.284Z,74.77
2018-09-19T02:09:00.639Z,75.14
2018-09-19T02:11:29.944Z,74.52
2018-09-19T02:13:59.550Z,75.71
2018-09-19T02:16:28.839Z,75.76
2018-09-19T02:18:58.178Z,75.46
2018-09-19T02:21:29.017Z,76.25
2018-09-19T02:23:58.316Z,75.49
2018-09-19T02:26:27.627Z,74.71
2018-09-19T02:28:56.939Z,75.63
2018-09-19T02:31:26.853Z,75.88
2018-09-19T02:33:56.689Z,75.58
2018-09-19T02:36:27.097Z,75.88
2018-09-19T02:38:57.643Z,76.70
2018-09-19T02:41:27.011Z,76.86
2018-09-19T02:43:56.400Z,76.59
2018-09-19T02:46:26.144Z,76.64
2018-09-19T02:48:55.450Z,76.54
2018-09-19T02:51:24.793Z,77.20
2018-09-19T02:53:54.182Z,76.61
2018-09-19T02:56:25.998Z,77.13
2018-09-19T02:58:55.335Z,77.58
2018-09-19T03:01:24.984Z,77.06
2018-09-19T03:03:54.272Z,77.57
2018-09-19T03:06:23.567Z,77.19
2018-09-19T03:08:52.897Z,77.78
2018-09-19T03:11:22.625Z,78.22
2018-09-19T03:13:51.973Z,78.35
2018-09-19T03:16:21.283Z,77.88
2018-09-19T03:18:50.568Z,78.14
2018-09-19T03:21:19.916Z,80.29
2018-09-19T03:23:49.271Z,80.17
2018-09-19T03:26:19.992Z,80.09
2018-09-19T03:28:50.304Z,80.30
2018-09-19T03:31:19.649Z,79.74
2018-09-19T03:33:49.031Z,79.53
2018-09-19T03:36:18.358Z,79.59
2018-09-19T03:38:47.695Z,79.57
2018-09-19T03:41:18.980Z,79.49
2018-09-19T03:43:49.756Z,79.26
2018-09-19T03:46:19.172Z,78.82
2018-09-19T03:48:48.505Z,79.01
2018-09-19T03:51:19.156Z,79.91
2018-09-19T03:53:48.484Z,79.99
2018-09-19T03:56:18.546Z,79.75
2018-09-19T03:58:48.308Z,79.73
2018-09-19T04:01:19.117Z,79.90
2018-09-19T04:03:48.424Z,81.21
2018-09-19T04:06:17.735Z,80.22
2018-09-19T04:08:47.063Z,79.37
2018-09-19T04:11:16.371Z,80.01
2018-09-19T04:13:46.581Z,80.29
2018-09-19T04:16:15.992Z,80.56
2018-09-19T04:18:55.348Z,81.00
2018-09-19T04:21:24.960Z,80.98
2018-09-19T04:23:54.321Z,81.05
2018-09-19T04:26:23.643Z,81.59
2018-09-19T04:28:53.212Z,81.83
2018-09-19T04:31:22.839Z,81.14
2018-09-19T04:33:52.727Z,80.65
2018-09-19T04:36:24.145Z,80.77
2018-09-19T04:38:54.798Z,81.35
2018-09-19T04:41:30.389Z,82.31
2018-09-19T04:43:59.755Z,82.39
2018-09-19T04:46:29.364Z,81.50
2018-09-19T04:48:58.673Z,81.98
2018-09-19T04:51:28.001Z,81.00
2018-09-19T04:53:57.292Z,81.97
2018-09-19T04:56:27.017Z,82.15
2018-09-19T04:58:56.399Z,82.22
2018-09-19T05:01:28.681Z,81.31
2018-09-19T05:03:58.015Z,81.05
2018-09-19T05:06:27.395Z,81.48
2018-09-19T05:08:56.982Z,82.34
2018-09-19T05:11:27.275Z,82.57
2018-09-19T05:13:59.034Z,81.40
2018-09-19T05:16:28.355Z,82.06
2018-09-19T05:18:58.050Z,82.02
2018-09-19T05:21:27.795Z,83.32
2018-09-19T05:23:57.396Z,81.75
2018-09-19T05:26:26.977Z,81.92
2018-09-19T05:28:56.397Z,81.73
2018-09-19T05:31:26.233Z,82.24
2018-09-19T05:33:55.848Z,82.20
2018-09-19T05:36:25.264Z,81.60
2018-09-19T05:38:54.600Z,81.77
2018-09-19T05:41:27.365Z,81.34
2018-09-19T05:43:57.302Z,81.84
2018-09-19T05:46:26.639Z,80.59
2018-09-19T05:48:56.282Z,79.89
2018-09-19T05:51:25.851Z,79.53
2018-09-19T05:53:55.246Z,79.10
2018-09-19T05:56:24.538Z,78.68
2018-09-19T05:58:55.218Z,78.98
2018-09-19T06:01:25.113Z,80.04
2018-09-19T06:04:57.973Z,80.78
2018-09-19T06:07:27.275Z,79.51
2018-09-19T06:09:56.651Z,79.65
2018-09-19T06:12:25.944Z,80.35
2018-09-19T06:14:55.240Z,80.71
2018-09-19T06:17:25.094Z,80.34
2018-09-19T06:19:54.804Z,80.53
2018-09-19T06:22:24.249Z,79.89
2018-09-19T06:24:53.980Z,79.80
2018-09-19T06:27:25.206Z,79.49
2018-09-19T06:29:55.089Z,79.36
2018-09-19T06:32:25.376Z,79.46
2018-09-19T06:34:56.626Z,79.29
2018-09-19T06:37:26.415Z,78.17
2018-09-19T06:39:55.739Z,78.13
2018-09-19T06:42:25.128Z,79.27
2018-09-19T06:44:54.429Z,79.46
2018-09-19T06:47:24.227Z,79.99
2018-09-19T06:49:53.636Z,81.88
2018-09-19T06:52:24.061Z,82.41
2018-09-19T06:54:53.416Z,83.07
2018-09-19T06:57:23.048Z,87.48
2018-09-19T06:59:52.419Z,88.78
2018-09-19T07:02:22.918Z,90.66
2018-09-19T07:04:53.103Z,90.46
2018-09-19T07:07:22.524Z,89.62
2018-09-19T07:09:53.858Z,89.98
2018-09-19T07:12:23.748Z,91.01
2018-09-19T07:14:53.465Z,92.03
2018-09-19T07:17:23.773Z,93.55
2018-09-19T07:19:53.098Z,92.52
2018-09-19T07:22:22.530Z,94.93
2018-09-19T07:24:53.414Z,94.41
2018-09-19T07:27:23.390Z,94.95
2018-09-19T07:29:53.061Z,96.09
2018-09-19T07:32:23.914Z,94.93
2018-09-19T07:34:54.214Z,95.33
2018-09-19T07:37:23.565Z,95.46
2018-09-19T07:39:54.591Z,96.68
2018-09-19T07:42:24.499Z,95.80
2018-09-19T07:44:54.366Z,97.42
2018-09-19T07:47:26.419Z,97.78
2018-09-19T07:49:55.834Z,98.69
2018-09-19T07:52:25.155Z,98.78
2018-09-19T07:54:56.180Z,99.54
2018-09-19T07:57:26.215Z,97.90
2018-09-19T07:59:59.583Z,99.22
2018-09-19T08:02:32.815Z,96.68
2018-09-19T08:05:02.124Z,96.48
2018-09-19T08:07:33.283Z,97.28
2018-09-19T08:10:02.597Z,97.96
2018-09-19T08:12:32.247Z,97.78
2018-09-19T08:15:02.338Z,96.18
2018-09-19T08:17:32.204Z,96.90
2018-09-19T08:20:01.496Z,98.20
2018-09-19T08:22:31.192Z,98.71
2018-09-19T08:25:00.608Z,100.00
2018-09-19T08:27:29.935Z,99.69
2018-09-19T08:29:59.633Z,99.52
2018-09-19T08:32:29.249Z,99.19
2018-09-19T08:34:58.770Z,100.00
2018-09-19T08:37:29.381Z,100.00
2018-09-19T08:40:02.783Z,100.00
2018-09-19T08:42:35.904Z,100.00
2018-09-19T08:45:05.879Z,100.00
2018-09-19T08:47:36.707Z,100.00
2018-09-19T08:50:06.496Z,98.21
2018-09-19T08:52:36.223Z,99.04
2018-09-19T08:55:05.647Z,94.99
2018-09-19T08:57:35.169Z,96.18
2018-09-19T09:00:05.375Z,96.12
2018-09-19T09:02:35.233Z,95.46
2018-09-19T09:05:05.023Z,94.09
2018-09-19T09:07:34.311Z,94.87
2018-09-19T09:10:04.272Z,91.47
2018-09-19T09:12:45.070Z,95.17
2018-09-19T09:15:20.111Z,93.59
2018-09-19T09:17:53.312Z,87.45
2018-09-19T09:20:23.312Z,88.67
2018-09-19T09:22:55.359Z,84.72
2018-09-19T09:25:25.279Z,84.58
2018-09-19T09:27:55.440Z,83.39
2018-09-19T09:30:26.433Z,82.32
2018-09-19T09:32:56.971Z,81.96
2018-09-19T09:35:28.583Z,82.32
2018-09-19T09:37:57.903Z,82.86
2018-09-19T09:40:28.852Z,82.87
2018-09-19T09:42:59.876Z,82.34
2018-09-19T09:45:31.252Z,82.27
2018-09-19T09:48:01.114Z,83.05
2018-09-19T09:50:31.735Z,81.99
2018-09-19T09:53:01.862Z,82.47
2018-09-19T09:55:31.270Z,83.19
2018-09-19T09:58:00.581Z,82.24
2018-09-19T10:00:38.207Z,82.35
2018-09-19T10:03:09.045Z,80.86
2018-09-19T10:05:39.305Z,80.54
2018-09-19T10:08:12.508Z,79.71
2018-09-19T10:10:42.483Z,79.29
2018-09-19T10:13:12.784Z,78.17
2018-09-19T10:15:44.603Z,76.62
2018-09-19T10:18:14.054Z,77.00
2018-09-19T10:20:43.643Z,75.78
2018-09-19T10:23:14.146Z,73.27
2018-09-19T10:25:44.994Z,74.49
2018-09-19T10:28:14.887Z,73.92
2018-09-19T10:30:46.200Z,73.45
2018-09-19T10:33:15.583Z,74.50
2018-09-19T10:35:46.013Z,72.61
2018-09-19T10:38:15.930Z,73.59
2018-09-19T10:40:45.290Z,72.68
2018-09-19T10:43:15.288Z,70.80
2018-09-19T10:45:45.577Z,74.00
2018-09-19T10:48:21.431Z,69.89
2018-09-19T10:53:47.419Z,71.18
2018-09-19T10:56:20.119Z,71.68
2018-09-19T10:58:49.463Z,68.90
2018-09-19T11:01:19.614Z,68.70
2018-09-19T11:03:49.397Z,70.30
2018-09-19T11:06:19.412Z,68.21
2018-09-19T11:08:50.125Z,65.99
2018-09-19T11:11:21.201Z,66.05
2018-09-19T11:13:51.648Z,64.48
2018-09-19T11:16:23.967Z,63.38
2018-09-19T11:18:54.316Z,65.57
2018-09-19T11:21:28.869Z,65.39
2018-09-19T11:23:58.144Z,65.57
2018-09-19T11:26:27.489Z,62.96
2018-09-19T11:31:45.715Z,61.54
2018-09-19T11:34:15.433Z,61.56
2018-09-19T11:36:45.194Z,61.57
2018-09-19T11:39:17.622Z,62.09
2018-09-19T11:41:49.562Z,61.09
2018-09-19T11:44:18.840Z,59.90
2018-09-19T11:46:48.524Z,59.44
2018-09-19T11:49:18.275Z,59.69
2018-09-19T11:51:48.383Z,60.01
2018-09-19T11:54:51.588Z,57.46
2018-09-19T11:57:21.993Z,55.91
2018-09-19T11:59:52.532Z,57.23
2018-09-19T12:02:24.030Z,57.19
2018-09-19T12:04:53.368Z,57.00
2018-09-19T12:07:26.116Z,54.98
2018-09-19T12:09:55.398Z,54.66
2018-09-19T12:12:26.407Z,55.48
2018-09-19T12:14:56.586Z,55.41
2018-09-19T12:17:25.900Z,55.47
2018-09-19T12:19:55.175Z,55.12
2018-09-19T12:22:24.814Z,55.87
2018-09-19T12:24:57.846Z,56.31
2018-09-19T12:27:27.144Z,54.51
2018-09-19T12:29:56.931Z,53.79
2018-09-19T12:35:14.463Z,53.43
2018-09-19T12:37:47.299Z,53.27
2018-09-19T12:40:16.694Z,54.58
2018-09-19T12:42:46.320Z,53.80
2018-09-19T12:45:16.163Z,52.54
2018-09-19T12:47:47.059Z,53.08
2018-09-19T12:50:19.072Z,53.36
2018-09-19T12:52:49.228Z,52.07
2018-09-19T12:55:18.515Z,51.65
2018-09-19T12:57:49.243Z,52.54
2018-09-19T13:00:18.578Z,52.82
2018-09-19T13:02:54.424Z,50.69
2018-09-19T13:05:23.714Z,49.06
2018-09-19T13:07:53.060Z,50.77
2018-09-19T13:10:22.389Z,49.30
2018-09-19T13:12:51.820Z,48.42
2018-09-19T13:15:21.946Z,47.76
2018-09-19T13:17:52.468Z,47.80
2018-09-19T13:20:24.364Z,47.43
2018-09-19T13:22:53.717Z,46.64
2018-09-19T13:25:22.976Z,46.71
2018-09-19T13:27:52.303Z,45.98
2018-09-19T13:30:23.260Z,46.47
2018-09-19T13:32:54.264Z,45.27
2018-09-19T13:35:27.691Z,44.08
2018-09-19T13:37:58.014Z,43.72
2018-09-19T13:40:27.417Z,43.47
2018-09-19T13:42:56.829Z,44.62
2018-09-19T13:45:26.138Z,45.55
2018-09-19T13:47:56.919Z,45.26
2018-09-19T13:50:41.647Z,44.23
2018-09-19T13:53:10.996Z,42.71
2018-09-19T13:55:44.774Z,41.84
2018-09-19T13:58:14.224Z,41.09
2018-09-19T14:00:46.401Z,41.26
2018-09-19T14:03:16.168Z,40.81
2018-09-19T14:05:46.231Z,41.19
2018-09-19T14:08:17.073Z,41.62
2018-09-19T14:10:50.149Z,42.36
2018-09-19T14:13:21.227Z,40.23
2018-09-19T14:15:50.524Z,39.50
2018-09-19T14:18:19.923Z,41.83
2018-09-19T14:20:49.773Z,40.09
2018-09-19T14:23:21.441Z,41.89
2018-09-19T14:25:50.900Z,40.56
2018-09-19T14:28:22.364Z,40.88
2018-09-19T14:30:51.773Z,40.84
2018-09-19T14:33:22.574Z,41.21
2018-09-19T14:35:56.015Z,41.32
2018-09-19T14:38:32.112Z,41.02
2018-09-19T14:41:03.092Z,41.92
2018-09-19T14:43:32.410Z,41.12
2018-09-19T14:46:02.283Z,40.29
2018-09-19T14:48:32.086Z,41.66
2018-09-19T14:51:02.019Z,40.19
2018-09-19T14:53:35.972Z,40.35
2018-09-19T14:56:06.144Z,39.62
2018-09-19T14:58:35.968Z,40.20
2018-09-19T15:01:05.447Z,40.71
2018-09-19T15:03:34.873Z,39.32
2018-09-19T15:06:04.987Z,39.42
2018-09-19T15:08:36.672Z,39.83
2018-09-19T15:11:06.501Z,41.65
2018-09-19T15:13:35.811Z,40.81
2018-09-19T15:16:05.191Z,40.70
2018-09-19T15:18:34.944Z,40.84
2018-09-19T15:21:04.595Z,41.17
2018-09-19T15:23:33.896Z,41.09
2018-09-19T15:26:04.058Z,41.95
2018-09-19T15:28:33.452Z,42.85
2018-09-19T15:31:03.813Z,42.43
2018-09-19T15:33:34.252Z,42.92
2018-09-19T15:36:03.600Z,42.80
2018-09-19T15:38:35.778Z,42.65
2018-09-19T15:41:06.965Z,43.11
2018-09-19T15:43:38.515Z,43.33
2018-09-19T15:46:07.814Z,44.12
2018-09-19T15:48:37.761Z,43.77
2018-09-19T15:51:07.703Z,43.87
2018-09-19T15:53:41.971Z,44.09
2018-09-19T15:56:12.461Z,45.10
2018-09-19T15:58:42.569Z,45.22
2018-09-19T16:01:14.382Z,43.77
2018-09-19T16:03:44.587Z,44.67
2018-09-19T16:06:13.910Z,44.45
2018-09-19T16:08:44.234Z,45.10
2018-09-19T16:11:14.336Z,44.69
2018-09-19T16:13:43.661Z,45.45
2018-09-19T16:16:14.284Z,45.59
2018-09-19T16:18:45.259Z,46.22
2018-09-19T16:21:14.578Z,46.25
2018-09-19T16:23:44.950Z,46.84
2018-09-19T16:26:17.352Z,47.84
2018-09-19T16:28:50.187Z,47.19
2018-09-19T16:31:19.801Z,48.08
2018-09-19T16:33:49.110Z,47.43
2018-09-19T16:36:18.443Z,47.43
2018-09-19T16:38:47.711Z,47.92
2018-09-19T16:41:17.344Z,48.04
2018-09-19T16:43:47.259Z,47.58
2018-09-19T16:46:22.148Z,47.85
2018-09-19T16:48:51.411Z,48.06
2018-09-19T16:51:21.387Z,49.57
2018-09-19T16:53:50.728Z,51.88
2018-09-19T16:56:21.000Z,51.36
2018-09-19T16:58:50.927Z,51.39
2018-09-19T17:01:22.106Z,50.65
2018-09-19T17:03:52.847Z,51.76
2018-09-19T17:06:23.667Z,52.71
2018-09-19T17:08:55.227Z,53.52
2018-09-19T17:11:27.896Z,53.37
2018-09-19T17:13:58.322Z,53.43
2018-09-19T17:16:46.082Z,53.70
2018-09-19T17:19:15.523Z,54.68
2018-09-19T17:21:48.423Z,53.89
2018-09-19T17:24:18.047Z,54.02
2018-09-19T17:26:47.354Z,54.72
2018-09-19T17:29:17.950Z,54.66
2018-09-19T17:31:47.625Z,54.10
2018-09-19T17:34:17.381Z,56.18
2018-09-19T17:36:55.400Z,56.02
2018-09-19T17:39:32.029Z,56.36
2018-09-19T17:42:01.388Z,56.64
2018-09-19T17:44:32.273Z,57.27
2018-09-19T17:47:02.455Z,56.42
2018-09-19T17:49:32.068Z,55.69
2018-09-19T17:52:03.660Z,56.16
2018-09-19T17:54:35.783Z,57.95
2018-09-19T17:57:05.105Z,57.47
2018-09-19T17:59:34.469Z,57.22
2018-09-19T18:02:03.770Z,57.49
2018-09-19T18:04:34.546Z,56.96
2018-09-19T18:07:03.912Z,58.09
2018-09-19T18:09:42.214Z,57.98
2018-09-19T18:12:12.244Z,58.34
2018-09-19T18:14:43.020Z,57.61
2018-09-19T18:17:14.222Z,57.80
2018-09-19T18:19:43.503Z,58.56
2018-09-19T18:22:12.882Z,57.87
2018-09-19T18:24:45.988Z,59.13
2018-09-19T18:27:15.951Z,59.12
2018-09-19T18:29:45.527Z,59.63
2018-09-19T18:32:15.865Z,59.52
2018-09-19T18:34:45.759Z,59.99
2018-09-19T18:37:21.113Z,59.59
2018-09-19T18:39:52.689Z,59.48
2018-09-19T18:42:23.371Z,59.34
2018-09-19T18:44:53.979Z,60.59
2018-09-19T18:47:23.585Z,59.75
2018-09-19T18:52:40.090Z,60.16
2018-09-19T18:55:11.643Z,60.88
2018-09-19T18:57:41.032Z,60.26
2018-09-19T19:00:12.258Z,60.61
2018-09-19T19:02:42.625Z,60.57
2018-09-19T19:05:14.044Z,61.85
2018-09-19T19:07:44.866Z,61.03
2018-09-19T19:10:18.412Z,62.50
2018-09-19T19:12:48.578Z,62.75
2018-09-19T19:15:19.969Z,62.52
2018-09-19T19:17:50.793Z,63.13
2018-09-19T19:20:21.855Z,62.59
2018-09-19T19:22:53.647Z,62.24
2018-09-19T19:25:23.723Z,61.99
2018-09-19T19:27:53.616Z,62.64
2018-09-19T19:30:24.496Z,61.75
2018-09-19T19:32:56.123Z,62.34
2018-09-19T19:35:25.624Z,62.00
2018-09-19T19:37:55.139Z,62.86
2018-09-19T19:40:25.370Z,61.97
2018-09-19T19:42:55.417Z,62.08
2018-09-19T19:45:25.555Z,62.61
2018-09-19T19:47:55.400Z,61.60
2018-09-19T19:50:25.406Z,61.59
2018-09-19T19:52:56.586Z,62.09
2018-09-19T19:55:32.187Z,61.92
2018-09-19T19:58:05.310Z,62.59
2018-09-19T20:00:36.959Z,61.89
2018-09-19T20:03:10.481Z,62.94
2018-09-19T20:05:44.460Z,62.11
2018-09-19T20:08:14.500Z,62.89
2018-09-19T20:10:44.106Z,62.00
2018-09-19T20:13:13.652Z,62.90
2018-09-19T20:15:47.460Z,61.63
2018-09-19T20:18:19.388Z,61.95
2018-09-19T20:20:50.235Z,60.68
2018-09-19T20:23:21.286Z,61.02
2018-09-19T20:25:50.515Z,60.65
2018-09-19T20:28:19.775Z,61.41
2018-09-19T20:30:51.066Z,61.19
2018-09-19T20:33:22.408Z,61.21
2018-09-19T20:35:54.506Z,61.47
2018-09-19T20:38:24.776Z,60.53
2018-09-19T20:40:55.078Z,59.99
2018-09-19T20:43:24.361Z,61.17
2018-09-19T20:45:53.878Z,61.44
2018-09-19T20:48:24.126Z,61.39
2018-09-19T20:50:55.328Z,61.48
2018-09-19T20:53:25.361Z,61.13
2018-09-19T20:55:58.558Z,61.69
2018-09-19T20:58:28.811Z,60.66
2018-09-19T21:01:01.028Z,60.30
2018-09-19T21:03:31.243Z,60.27
2018-09-19T21:06:02.018Z,61.03
2018-09-19T21:08:34.882Z,60.87
2018-09-19T21:11:06.438Z,60.22
2018-09-19T21:13:35.766Z,60.98
2018-09-19T21:16:05.414Z,60.24
2018-09-19T21:18:34.974Z,60.06
2018-09-19T21:21:05.285Z,60.87
2018-09-19T21:23:35.188Z,60.87
2018-09-19T21:26:07.534Z,61.06
2018-09-19T21:28:37.860Z,60.08
2018-09-19T21:31:08.079Z,60.76
2018-09-19T21:33:37.691Z,60.75
2018-09-19T21:36:07.223Z,61.00
2018-09-19T21:38:37.986Z,59.93
2018-09-19T21:41:08.296Z,60.04
2018-09-19T21:43:43.505Z,60.37
2018-09-19T21:46:14.409Z,60.68
2018-09-19T21:48:44.041Z,60.84
2018-09-19T21:51:15.142Z,61.27
2018-09-19T21:53:44.443Z,60.30
2018-09-19T21:56:13.808Z,61.20
2018-09-19T21:58:43.112Z,61.62
2018-09-19T22:01:13.149Z,61.23
2018-09-19T22:03:43.162Z,61.43
2018-09-19T22:06:13.453Z,62.39
2018-09-19T22:08:44.947Z,62.08
2018-09-19T22:11:17.304Z,62.20
2018-09-19T22:13:49.233Z,62.87
2018-09-19T22:16:19.170Z,63.01
2018-09-19T22:18:48.997Z,63.27
2018-09-19T22:21:21.918Z,63.92
2018-09-19T22:23:54.113Z,62.93
2018-09-19T22:26:25.472Z,63.39
2018-09-19T22:28:54.791Z,62.01
2018-09-19T22:31:25.311Z,62.60
2018-09-19T22:33:55.962Z,62.86
2018-09-19T22:36:25.236Z,62.20
2018-09-19T22:38:54.619Z,62.11
2018-09-19T22:41:23.970Z,62.93
2018-09-19T22:43:53.247Z,62.03
2018-09-19T22:46:22.693Z,62.79
2018-09-19T22:48:52.302Z,62.70
2018-09-19T22:51:21.566Z,62.04
2018-09-19T22:53:51.949Z,61.47
2018-09-19T22:56:22.293Z,62.25
2018-09-19T22:58:51.810Z,62.41
2018-09-19T23:01:21.843Z,62.35
2018-09-19T23:03:53.231Z,62.13
2018-09-19T23:06:22.979Z,61.57
2018-09-19T23:08:52.286Z,61.69
2018-09-19T23:11:21.618Z,62.50
2018-09-19T23:13:50.950Z,62.45
2018-09-19T23:16:20.575Z,62.69
2018-09-19T23:18:49.974Z,62.61
2018-09-19T23:21:19.272Z,61.87
2018-09-19T23:23:48.558Z,61.78
2018-09-19T23:26:18.211Z,61.70
2018-09-19T23:28:49.455Z,62.46
2018-09-19T23:31:19.567Z,61.85
2018-09-19T23:33:49.138Z,62.14
2018-09-19T23:36:18.431Z,63.23
2018-09-19T23:38:48.959Z,63.08
2018-09-19T23:41:18.353Z,62.80
2018-09-19T23:43:49.391Z,62.77
2018-09-19T23:46:19.318Z,63.35
2018-09-19T23:48:48.873Z,63.72
2018-09-19T23:51:18.197Z,63.33
2018-09-19T23:53:47.879Z,63.57
2018-09-19T23:56:19.370Z,63.49
2018-09-19T23:58:48.872Z,63.31
